メインページ
METAR-TAF:

METAR-TAF

空港 :

Lynn Lake, マニトバ州, カナダ

緯度: 56-52N, 経度: 101-05W, 海抜: 357m

現時点の気象観測

当レポートは4時間52分前の07:00(UTC)に作成
気温 -32°C
湿度 74%
気圧 1018 hPa

METAR: CYYL 140700Z AUTO /////KT M32/M35 A3006 RMK WND MISG CLD MISG WX MISG VIS MISG PCPN MISG ICG MISG SLP238

時間: 05:52 (11:52 UTC)

予報

当レポートは11時間14分前の00:38(UTC)に作成
予報は14日の 01時(UTC)から 14日の 13時(UTC)まで有効
西/北西の風 6kt
視程: 10km
晴天

TAF: CYYL 140038Z 1401/1413 29006KT P6SM SKC RMK FCST BASED ON AUTO OBS. NXT FCST BY 140700Z

4,000以上の空港の気象観測と天気予報(METAR報とTAF報)

利用可能な観測所は地図上に黄色い丸と赤い丸で示す。

丸の上にカーソルを重ねると観測所名を参照できる。

次にクリックすると気象観測と天気予報を参照できる。

マップの切り替え:黒色「×」印の緑ボタンをクリックして拡大、「-」印の緑ボタンをクリックして縮小、緑色の三角印をクリックして隣りの地図に切り替え


METAR-TAF: